sensor_id;sensor_type;location;lat;lon;timestamp;temperature;humidity
5956;DHT22;3004;48.080;11.600;2023-04-30T00:06:17;10.40;99.90
5956;DHT22;3004;48.080;11.600;2023-04-30T00:40:46;10.00;99.90
5956;DHT22;3004;48.080;11.600;2023-04-30T00:48:41;10.00;99.90
5956;DHT22;3004;48.080;11.600;2023-04-30T00:51:28;10.00;99.90
5956;DHT22;3004;48.080;11.600;2023-04-30T00:57:00;10.00;99.90
5956;DHT22;3004;48.080;11.600;2023-04-30T00:59:27;10.00;99.90
5956;DHT22;3004;48.080;11.600;2023-04-30T01:01:58;9.90;99.90
5956;DHT22;3004;48.080;11.600;2023-04-30T01:08:08;9.90;99.90
5956;DHT22;3004;48.080;11.600;2023-04-30T01:11:20;9.90;99.90
5956;DHT22;3004;48.080;11.600;2023-04-30T01:14:27;9.90;99.90
5956;DHT22;3004;48.080;11.600;2023-04-30T01:17:15;9.90;99.90
5956;DHT22;3004;48.080;11.600;2023-04-30T01:22:54;9.80;99.90
5956;DHT22;3004;48.080;11.600;2023-04-30T01:42:21;9.70;99.90
5956;DHT22;3004;48.080;11.600;2023-04-30T01:53:37;9.60;99.90
5956;DHT22;3004;48.080;11.600;2023-04-30T02:11:35;9.50;99.90
5956;DHT22;3004;48.080;11.600;2023-04-30T02:14:08;9.50;99.90
5956;DHT22;3004;48.080;11.600;2023-04-30T02:19:59;9.40;99.90
5956;DHT22;3004;48.080;11.600;2023-04-30T02:22:33;9.40;99.90
5956;DHT22;3004;48.080;11.600;2023-04-30T02:25:06;9.40;99.90
5956;DHT22;3004;48.080;11.600;2023-04-30T02:39:10;9.40;99.90
5956;DHT22;3004;48.080;11.600;2023-04-30T02:48:22;9.40;99.90
5956;DHT22;3004;48.080;11.600;2023-04-30T02:51:03;9.40;99.90
5956;DHT22;3004;48.080;11.600;2023-04-30T02:53:56;9.30;99.90
5956;DHT22;3004;48.080;11.600;2023-04-30T02:56:27;9.30;99.90
5956;DHT22;3004;48.080;11.600;2023-04-30T02:59:17;9.30;99.90
5956;DHT22;3004;48.080;11.600;2023-04-30T03:17:09;9.20;99.90
5956;DHT22;3004;48.080;11.600;2023-04-30T03:24:49;9.20;99.90
5956;DHT22;3004;48.080;11.600;2023-04-30T03:27:21;9.10;99.90
5956;DHT22;3004;48.080;11.600;2023-04-30T03:29:50;9.10;99.90
5956;DHT22;3004;48.080;11.600;2023-04-30T03:32:40;9.10;99.90
5956;DHT22;3004;48.080;11.600;2023-04-30T03:35:12;9.00;99.90
5956;DHT22;3004;48.080;11.600;2023-04-30T03:40:42;9.00;99.90
5956;DHT22;3004;48.080;11.600;2023-04-30T03:43:11;9.00;99.90
5956;DHT22;3004;48.080;11.600;2023-04-30T03:45:41;8.90;99.90
5956;DHT22;3004;48.080;11.600;2023-04-30T03:48:10;8.90;99.90
5956;DHT22;3004;48.080;11.600;2023-04-30T03:50:37;8.80;99.90
5956;DHT22;3004;48.080;11.600;2023-04-30T03:53:04;8.80;99.90
5956;DHT22;3004;48.080;11.600;2023-04-30T04:02:18;8.60;99.90
5956;DHT22;3004;48.080;11.600;2023-04-30T04:11:22;8.50;99.90
5956;DHT22;3004;48.080;11.600;2023-04-30T04:14:03;8.40;99.90
5956;DHT22;3004;48.080;11.600;2023-04-30T04:16:58;8.40;99.90
5956;DHT22;3004;48.080;11.600;2023-04-30T04:27:42;8.50;99.90
5956;DHT22;3004;48.080;11.600;2023-04-30T04:30:51;8.60;99.90
5956;DHT22;3004;48.080;11.600;2023-04-30T04:42:12;8.70;99.90
5956;DHT22;3004;48.080;11.600;2023-04-30T04:55:18;8.70;99.90
5956;DHT22;3004;48.080;11.600;2023-04-30T05:04:52;8.70;99.90
5956;DHT22;3004;48.080;11.600;2023-04-30T05:07:48;8.80;99.90
5956;DHT22;3004;48.080;11.600;2023-04-30T05:17:12;8.90;99.90
5956;DHT22;3004;48.080;11.600;2023-04-30T05:19:41;9.00;99.90
5956;DHT22;3004;48.080;11.600;2023-04-30T05:40:09;9.10;99.90
5956;DHT22;3004;48.080;11.600;2023-04-30T05:50:11;9.10;99.90
5956;DHT22;3004;48.080;11.600;2023-04-30T06:13:06;9.30;99.90
5956;DHT22;3004;48.080;11.600;2023-04-30T06:16:09;9.40;99.90
5956;DHT22;3004;48.080;11.600;2023-04-30T06:18:48;9.40;99.90
5956;DHT22;3004;48.080;11.600;2023-04-30T06:25:01;9.50;99.90
5956;DHT22;3004;48.080;11.600;2023-04-30T06:27:45;9.70;99.90
5956;DHT22;3004;48.080;11.600;2023-04-30T06:30:20;9.70;99.90
5956;DHT22;3004;48.080;11.600;2023-04-30T06:32:52;9.70;99.90
5956;DHT22;3004;48.080;11.600;2023-04-30T06:35:23;9.70;99.90
5956;DHT22;3004;48.080;11.600;2023-04-30T06:38:18;9.70;99.90
5956;DHT22;3004;48.080;11.600;2023-04-30T06:44:39;10.00;99.90
5956;DHT22;3004;48.080;11.600;2023-04-30T06:50:29;10.30;99.90
5956;DHT22;3004;48.080;11.600;2023-04-30T06:53:00;10.80;99.90
5956;DHT22;3004;48.080;11.600;2023-04-30T07:25:48;11.20;99.90
5956;DHT22;3004;48.080;11.600;2023-04-30T07:28:24;11.20;99.90
5956;DHT22;3004;48.080;11.600;2023-04-30T07:34:32;10.90;99.90
5956;DHT22;3004;48.080;11.600;2023-04-30T07:37:17;10.90;99.90
5956;DHT22;3004;48.080;11.600;2023-04-30T07:39:56;10.90;99.90
5956;DHT22;3004;48.080;11.600;2023-04-30T08:03:07;11.30;99.90
5956;DHT22;3004;48.080;11.600;2023-04-30T08:15:21;12.00;99.90
5956;DHT22;3004;48.080;11.600;2023-04-30T08:30:49;12.80;99.90
5956;DHT22;3004;48.080;11.600;2023-04-30T08:33:21;12.90;99.90
5956;DHT22;3004;48.080;11.600;2023-04-30T08:38:15;13.00;99.90
5956;DHT22;3004;48.080;11.600;2023-04-30T08:40:51;13.30;99.90
5956;DHT22;3004;48.080;11.600;2023-04-30T08:43:44;13.20;99.90
5956;DHT22;3004;48.080;11.600;2023-04-30T08:46:16;12.80;99.90
5956;DHT22;3004;48.080;11.600;2023-04-30T08:48:56;12.50;99.90
5956;DHT22;3004;48.080;11.600;2023-04-30T09:02:38;12.00;99.90
5956;DHT22;3004;48.080;11.600;2023-04-30T09:05:11;12.10;99.90
5956;DHT22;3004;48.080;11.600;2023-04-30T09:07:48;12.30;99.90
5956;DHT22;3004;48.080;11.600;2023-04-30T09:10:16;12.40;99.90
5956;DHT22;3004;48.080;11.600;2023-04-30T09:13:04;12.70;99.90
5956;DHT22;3004;48.080;11.600;2023-04-30T09:15:40;13.50;99.90
5956;DHT22;3004;48.080;11.600;2023-04-30T09:18:17;13.30;99.90
5956;DHT22;3004;48.080;11.600;2023-04-30T09:20:57;13.30;99.90
5956;DHT22;3004;48.080;11.600;2023-04-30T09:54:44;12.40;99.90
5956;DHT22;3004;48.080;11.600;2023-04-30T09:57:14;12.40;99.90
5956;DHT22;3004;48.080;11.600;2023-04-30T10:04:53;12.70;99.90
5956;DHT22;3004;48.080;11.600;2023-04-30T10:10:17;12.60;99.90
5956;DHT22;3004;48.080;11.600;2023-04-30T10:15:29;12.80;99.90
5956;DHT22;3004;48.080;11.600;2023-04-30T11:53:30;13.70;99.90
5956;DHT22;3004;48.080;11.600;2023-04-30T12:08:13;13.60;99.90
5956;DHT22;3004;48.080;11.600;2023-04-30T12:10:43;13.80;99.90
5956;DHT22;3004;48.080;11.600;2023-04-30T12:15:58;13.80;99.90
5956;DHT22;3004;48.080;11.600;2023-04-30T12:18:35;13.90;99.90
5956;DHT22;3004;48.080;11.600;2023-04-30T12:21:06;13.90;99.90
5956;DHT22;3004;48.080;11.600;2023-04-30T12:23:39;13.80;99.90
5956;DHT22;3004;48.080;11.600;2023-04-30T12:26:09;13.90;99.90
5956;DHT22;3004;48.080;11.600;2023-04-30T12:28:45;13.90;99.90
5956;DHT22;3004;48.080;11.600;2023-04-30T12:31:12;13.90;99.90
5956;DHT22;3004;48.080;11.600;2023-04-30T12:33:39;14.00;99.90
5956;DHT22;3004;48.080;11.600;2023-04-30T12:36:11;14.20;99.90
5956;DHT22;3004;48.080;11.600;2023-04-30T12:39:14;14.40;99.90
5956;DHT22;3004;48.080;11.600;2023-04-30T12:41:42;14.70;99.90
5956;DHT22;3004;48.080;11.600;2023-04-30T12:44:41;14.80;99.90
5956;DHT22;3004;48.080;11.600;2023-04-30T12:47:15;15.20;99.90
5956;DHT22;3004;48.080;11.600;2023-04-30T12:56:22;15.10;99.90
5956;DHT22;3004;48.080;11.600;2023-04-30T13:01:54;15.20;99.90
5956;DHT22;3004;48.080;11.600;2023-04-30T13:04:32;15.10;99.90
5956;DHT22;3004;48.080;11.600;2023-04-30T13:07:11;15.40;99.90
5956;DHT22;3004;48.080;11.600;2023-04-30T13:09:39;15.00;99.90
5956;DHT22;3004;48.080;11.600;2023-04-30T13:12:31;15.00;99.90
5956;DHT22;3004;48.080;11.600;2023-04-30T13:51:20;15.00;99.90
5956;DHT22;3004;48.080;11.600;2023-04-30T13:54:07;15.00;99.90
5956;DHT22;3004;48.080;11.600;2023-04-30T13:56:47;14.80;99.90
5956;DHT22;3004;48.080;11.600;2023-04-30T13:59:35;14.80;99.90
5956;DHT22;3004;48.080;11.600;2023-04-30T14:02:37;15.00;99.90
5956;DHT22;3004;48.080;11.600;2023-04-30T14:05:41;15.00;99.90
5956;DHT22;3004;48.080;11.600;2023-04-30T14:08:18;15.20;99.90
5956;DHT22;3004;48.080;11.600;2023-04-30T14:10:49;15.00;99.90
5956;DHT22;3004;48.080;11.600;2023-04-30T14:30:12;15.60;99.90
5956;DHT22;3004;48.080;11.600;2023-04-30T14:39:07;15.50;99.90
5956;DHT22;3004;48.080;11.600;2023-04-30T14:42:01;15.20;99.90
5956;DHT22;3004;48.080;11.600;2023-04-30T15:11:11;15.10;99.90
5956;DHT22;3004;48.080;11.600;2023-04-30T15:30:48;15.30;99.90
5956;DHT22;3004;48.080;11.600;2023-04-30T15:33:18;15.20;99.90
5956;DHT22;3004;48.080;11.600;2023-04-30T15:35:48;14.90;99.90
5956;DHT22;3004;48.080;11.600;2023-04-30T15:38:29;15.10;99.90
5956;DHT22;3004;48.080;11.600;2023-04-30T15:40:56;15.20;99.90
5956;DHT22;3004;48.080;11.600;2023-04-30T15:43:35;15.40;99.90
5956;DHT22;3004;48.080;11.600;2023-04-30T15:46:30;15.40;99.90
5956;DHT22;3004;48.080;11.600;2023-04-30T15:48:59;15.60;99.90
5956;DHT22;3004;48.080;11.600;2023-04-30T15:51:34;15.30;99.90
5956;DHT22;3004;48.080;11.600;2023-04-30T15:54:02;15.00;99.90
5956;DHT22;3004;48.080;11.600;2023-04-30T15:56:37;14.80;99.90
5956;DHT22;3004;48.080;11.600;2023-04-30T16:02:23;15.00;99.90
5956;DHT22;3004;48.080;11.600;2023-04-30T16:04:55;15.20;99.90
5956;DHT22;3004;48.080;11.600;2023-04-30T16:07:25;15.20;99.90
5956;DHT22;3004;48.080;11.600;2023-04-30T16:14:04;15.00;99.90
5956;DHT22;3004;48.080;11.600;2023-04-30T16:23:32;14.80;99.90
5956;DHT22;3004;48.080;11.600;2023-04-30T16:26:02;14.60;99.90
5956;DHT22;3004;48.080;11.600;2023-04-30T16:32:01;14.60;99.90
5956;DHT22;3004;48.080;11.600;2023-04-30T16:34:52;14.60;99.90
5956;DHT22;3004;48.080;11.600;2023-04-30T16:37:27;14.60;99.90
5956;DHT22;3004;48.080;11.600;2023-04-30T16:40:06;14.60;99.90
5956;DHT22;3004;48.080;11.600;2023-04-30T16:42:35;14.60;99.90
5956;DHT22;3004;48.080;11.600;2023-04-30T16:45:07;14.60;99.90
5956;DHT22;3004;48.080;11.600;2023-04-30T16:47:43;14.50;99.90
5956;DHT22;3004;48.080;11.600;2023-04-30T16:50:14;14.50;99.90
5956;DHT22;3004;48.080;11.600;2023-04-30T16:52:43;14.40;99.90
5956;DHT22;3004;48.080;11.600;2023-04-30T17:02:18;14.30;99.90
5956;DHT22;3004;48.080;11.600;2023-04-30T17:05:04;14.30;99.90
5956;DHT22;3004;48.080;11.600;2023-04-30T17:07:34;14.20;99.90
5956;DHT22;3004;48.080;11.600;2023-04-30T17:10:33;14.20;99.90
5956;DHT22;3004;48.080;11.600;2023-04-30T17:13:02;14.10;99.90
5956;DHT22;3004;48.080;11.600;2023-04-30T17:16:11;14.10;99.90
5956;DHT22;3004;48.080;11.600;2023-04-30T17:22:38;14.10;99.90
5956;DHT22;3004;48.080;11.600;2023-04-30T17:31:37;14.00;99.90
5956;DHT22;3004;48.080;11.600;2023-04-30T17:34:05;14.00;99.90
5956;DHT22;3004;48.080;11.600;2023-04-30T17:43:42;13.80;99.90
5956;DHT22;3004;48.080;11.600;2023-04-30T17:46:13;13.80;99.90
5956;DHT22;3004;48.080;11.600;2023-04-30T17:48:47;13.80;99.90
5956;DHT22;3004;48.080;11.600;2023-04-30T17:51:17;13.70;99.90
5956;DHT22;3004;48.080;11.600;2023-04-30T17:54:01;13.70;99.90
5956;DHT22;3004;48.080;11.600;2023-04-30T17:56:33;13.60;99.90
5956;DHT22;3004;48.080;11.600;2023-04-30T17:59:09;13.50;99.90
5956;DHT22;3004;48.080;11.600;2023-04-30T18:01:45;13.40;99.90
5956;DHT22;3004;48.080;11.600;2023-04-30T18:04:31;13.30;99.90
5956;DHT22;3004;48.080;11.600;2023-04-30T18:06:58;13.30;99.90
5956;DHT22;3004;48.080;11.600;2023-04-30T18:09:33;13.20;99.90
5956;DHT22;3004;48.080;11.600;2023-04-30T18:12:00;13.20;99.90
5956;DHT22;3004;48.080;11.600;2023-04-30T18:14:45;13.10;99.90
5956;DHT22;3004;48.080;11.600;2023-04-30T18:17:18;13.00;99.90
5956;DHT22;3004;48.080;11.600;2023-04-30T18:19:45;12.90;99.90
5956;DHT22;3004;48.080;11.600;2023-04-30T18:22:14;12.80;99.90
5956;DHT22;3004;48.080;11.600;2023-04-30T18:24:43;12.80;99.90
5956;DHT22;3004;48.080;11.600;2023-04-30T18:27:23;12.80;99.90
5956;DHT22;3004;48.080;11.600;2023-04-30T18:30:14;12.70;99.90
5956;DHT22;3004;48.080;11.600;2023-04-30T18:32:47;12.70;99.90
5956;DHT22;3004;48.080;11.600;2023-04-30T18:35:20;12.70;99.90
5956;DHT22;3004;48.080;11.600;2023-04-30T18:37:50;12.60;99.90
5956;DHT22;3004;48.080;11.600;2023-04-30T18:40:17;12.60;99.90
5956;DHT22;3004;48.080;11.600;2023-04-30T18:45:49;12.50;99.90
5956;DHT22;3004;48.080;11.600;2023-04-30T18:48:20;12.40;99.90
5956;DHT22;3004;48.080;11.600;2023-04-30T18:50:50;12.40;99.90
5956;DHT22;3004;48.080;11.600;2023-04-30T18:53:18;12.30;99.90
5956;DHT22;3004;48.080;11.600;2023-04-30T18:55:48;12.30;99.90
5956;DHT22;3004;48.080;11.600;2023-04-30T19:03:38;12.20;99.90
5956;DHT22;3004;48.080;11.600;2023-04-30T19:06:21;12.10;99.90
5956;DHT22;3004;48.080;11.600;2023-04-30T19:08:48;12.00;99.90
5956;DHT22;3004;48.080;11.600;2023-04-30T19:11:18;12.10;99.90
5956;DHT22;3004;48.080;11.600;2023-04-30T19:13:50;11.50;99.90
5956;DHT22;3004;48.080;11.600;2023-04-30T19:16:21;11.90;99.90
5956;DHT22;3004;48.080;11.600;2023-04-30T19:18:48;11.90;99.90
5956;DHT22;3004;48.080;11.600;2023-04-30T19:21:18;11.90;99.90
5956;DHT22;3004;48.080;11.600;2023-04-30T19:23:52;11.80;99.90
5956;DHT22;3004;48.080;11.600;2023-04-30T19:27:06;11.80;99.90
5956;DHT22;3004;48.080;11.600;2023-04-30T19:47:42;11.40;99.90
5956;DHT22;3004;48.080;11.600;2023-04-30T19:50:13;11.30;99.90
5956;DHT22;3004;48.080;11.600;2023-04-30T19:52:42;11.30;99.90
5956;DHT22;3004;48.080;11.600;2023-04-30T19:55:14;11.30;99.90
5956;DHT22;3004;48.080;11.600;2023-04-30T19:57:52;11.20;99.90
5956;DHT22;3004;48.080;11.600;2023-04-30T20:00:39;11.20;99.90
5956;DHT22;3004;48.080;11.600;2023-04-30T20:03:08;11.20;99.90
5956;DHT22;3004;48.080;11.600;2023-04-30T20:05:39;11.10;99.90
5956;DHT22;3004;48.080;11.600;2023-04-30T20:08:07;11.10;99.90
5956;DHT22;3004;48.080;11.600;2023-04-30T20:10:46;11.10;99.90
5956;DHT22;3004;48.080;11.600;2023-04-30T20:13:15;11.00;99.90
5956;DHT22;3004;48.080;11.600;2023-04-30T20:15:45;11.00;99.90
5956;DHT22;3004;48.080;11.600;2023-04-30T20:18:18;11.00;99.90
5956;DHT22;3004;48.080;11.600;2023-04-30T20:20:50;11.00;99.90
5956;DHT22;3004;48.080;11.600;2023-04-30T20:23:24;10.90;99.90
5956;DHT22;3004;48.080;11.600;2023-04-30T20:25:57;10.80;99.90
5956;DHT22;3004;48.080;11.600;2023-04-30T20:28:27;10.80;99.90
5956;DHT22;3004;48.080;11.600;2023-04-30T20:30:57;10.70;99.90
5956;DHT22;3004;48.080;11.600;2023-04-30T20:33:28;10.70;99.90
5956;DHT22;3004;48.080;11.600;2023-04-30T20:35:55;10.60;99.90
5956;DHT22;3004;48.080;11.600;2023-04-30T20:38:25;10.60;99.90
5956;DHT22;3004;48.080;11.600;2023-04-30T20:40:58;10.60;99.90
5956;DHT22;3004;48.080;11.600;2023-04-30T20:43:28;10.60;99.90
5956;DHT22;3004;48.080;11.600;2023-04-30T20:45:59;10.50;99.90
5956;DHT22;3004;48.080;11.600;2023-04-30T20:48:38;10.50;99.90
5956;DHT22;3004;48.080;11.600;2023-04-30T20:51:18;10.40;99.90
5956;DHT22;3004;48.080;11.600;2023-04-30T20:53:47;10.50;99.90
5956;DHT22;3004;48.080;11.600;2023-04-30T20:56:16;10.30;99.90
5956;DHT22;3004;48.080;11.600;2023-04-30T21:05:29;10.30;99.90
5956;DHT22;3004;48.080;11.600;2023-04-30T21:07:59;10.30;99.90
5956;DHT22;3004;48.080;11.600;2023-04-30T21:10:28;10.00;99.90
5956;DHT22;3004;48.080;11.600;2023-04-30T21:13:00;9.60;99.90
5956;DHT22;3004;48.080;11.600;2023-04-30T21:15:28;9.50;99.90
5956;DHT22;3004;48.080;11.600;2023-04-30T21:17:55;9.30;99.90
5956;DHT22;3004;48.080;11.600;2023-04-30T21:20:22;9.30;99.90
5956;DHT22;3004;48.080;11.600;2023-04-30T21:22:51;9.30;99.90
5956;DHT22;3004;48.080;11.600;2023-04-30T21:25:19;9.30;99.90
5956;DHT22;3004;48.080;11.600;2023-04-30T21:27:46;9.10;99.90
5956;DHT22;3004;48.080;11.600;2023-04-30T21:30:16;9.00;99.90
5956;DHT22;3004;48.080;11.600;2023-04-30T21:32:43;8.80;99.90
5956;DHT22;3004;48.080;11.600;2023-04-30T21:35:11;8.80;99.90
5956;DHT22;3004;48.080;11.600;2023-04-30T21:37:38;8.70;99.90
5956;DHT22;3004;48.080;11.600;2023-04-30T21:40:11;8.80;99.90
5956;DHT22;3004;48.080;11.600;2023-04-30T21:42:38;9.20;99.90
5956;DHT22;3004;48.080;11.600;2023-04-30T21:45:06;9.40;99.90
5956;DHT22;3004;48.080;11.600;2023-04-30T21:47:34;9.60;99.90
5956;DHT22;3004;48.080;11.600;2023-04-30T21:56:58;9.40;99.90
5956;DHT22;3004;48.080;11.600;2023-04-30T21:59:25;9.10;99.90
5956;DHT22;3004;48.080;11.600;2023-04-30T22:15:26;8.60;99.90
5956;DHT22;3004;48.080;11.600;2023-04-30T22:17:55;8.80;99.90
5956;DHT22;3004;48.080;11.600;2023-04-30T22:20:23;9.10;99.90
5956;DHT22;3004;48.080;11.600;2023-04-30T22:22:50;9.30;99.90
5956;DHT22;3004;48.080;11.600;2023-04-30T22:25:17;9.30;99.90
5956;DHT22;3004;48.080;11.600;2023-04-30T22:27:45;9.30;99.90
5956;DHT22;3004;48.080;11.600;2023-04-30T22:30:15;9.30;99.90
5956;DHT22;3004;48.080;11.600;2023-04-30T22:32:45;9.30;99.90
5956;DHT22;3004;48.080;11.600;2023-04-30T22:35:14;9.00;99.90
5956;DHT22;3004;48.080;11.600;2023-04-30T22:48:16;8.10;99.90
5956;DHT22;3004;48.080;11.600;2023-04-30T22:50:44;8.00;99.90
5956;DHT22;3004;48.080;11.600;2023-04-30T22:53:11;8.00;99.90
5956;DHT22;3004;48.080;11.600;2023-04-30T22:55:43;8.50;99.90
5956;DHT22;3004;48.080;11.600;2023-04-30T22:58:10;8.90;99.90
5956;DHT22;3004;48.080;11.600;2023-04-30T23:00:42;9.10;99.90
5956;DHT22;3004;48.080;11.600;2023-04-30T23:03:10;9.20;99.90
5956;DHT22;3004;48.080;11.600;2023-04-30T23:05:38;9.20;99.90
5956;DHT22;3004;48.080;11.600;2023-04-30T23:08:08;9.30;99.90
5956;DHT22;3004;48.080;11.600;2023-04-30T23:10:37;9.30;99.90
5956;DHT22;3004;48.080;11.600;2023-04-30T23:29:30;9.00;99.90
5956;DHT22;3004;48.080;11.600;2023-04-30T23:31:59;8.70;99.90
5956;DHT22;3004;48.080;11.600;2023-04-30T23:34:29;8.60;99.90
5956;DHT22;3004;48.080;11.600;2023-04-30T23:36:57;8.40;99.90
5956;DHT22;3004;48.080;11.600;2023-04-30T23:39:24;8.10;99.90
5956;DHT22;3004;48.080;11.600;2023-04-30T23:41:51;7.90;99.90
5956;DHT22;3004;48.080;11.600;2023-04-30T23:44:18;7.70;99.90
5956;DHT22;3004;48.080;11.600;2023-04-30T23:46:47;7.70;99.90
5956;DHT22;3004;48.080;11.600;2023-04-30T23:49:17;7.60;99.90
5956;DHT22;3004;48.080;11.600;2023-04-30T23:51:50;7.90;99.90
5956;DHT22;3004;48.080;11.600;2023-04-30T23:54:18;8.20;99.90
5956;DHT22;3004;48.080;11.600;2023-04-30T23:56:45;8.40;99.90
5956;DHT22;3004;48.080;11.600;2023-04-30T23:59:12;8.40;99.90
